Time;durP1;ratioP1;P1;durP2;ratioP2;P2;SDS_P1;SDS_P2;PMS_P1;PMS_P2;Temp;Humidity;BMP_temperature;BMP_pressure;BME280_temperature;BME280_humidity;BME280_pressure;Samples;Min_cycle;Max_cycle;Signal;HPM_P1;HPM_P2
2023/12/21 00:00:18;;;;;;;1.70;0.70;;;7.70;99.90;;;;;;5019673;28;20029;-63
2023/12/21 00:02:43;;;;;;;1.45;0.77;;;7.70;99.90;;;;;;5019350;28;20053;-63
2023/12/21 00:05:09;;;;;;;1.73;1.08;;;7.70;99.90;;;;;;5020365;28;20034;-63
2023/12/21 00:07:35;;;;;;;2.58;0.68;;;7.70;99.90;;;;;;5020568;28;20033;-63
2023/12/21 00:10:00;;;;;;;3.83;0.98;;;7.70;99.90;;;;;;5020224;28;20026;-63
2023/12/21 00:12:26;;;;;;;1.08;0.60;;;7.60;99.90;;;;;;5019106;28;20025;-63
2023/12/21 00:14:51;;;;;;;3.47;0.80;;;7.70;99.90;;;;;;5002922;28;20029;-63
2023/12/21 00:17:17;;;;;;;0.95;0.57;;;7.70;99.90;;;;;;5019179;28;20025;-63
2023/12/21 00:19:42;;;;;;;0.95;0.80;;;7.70;99.90;;;;;;5019808;28;20026;-63
2023/12/21 00:22:08;;;;;;;1.75;0.50;;;7.70;99.90;;;;;;5019705;28;20022;-63
2023/12/21 00:24:33;;;;;;;0.95;0.60;;;7.60;99.90;;;;;;5019128;28;20026;-63
2023/12/21 00:26:59;;;;;;;2.90;0.55;;;7.60;99.90;;;;;;5020144;28;20034;-63
2023/12/21 00:29:24;;;;;;;1.67;0.45;;;7.60;99.90;;;;;;5020084;28;20041;-63
2023/12/21 00:31:50;;;;;;;2.03;0.60;;;7.60;99.90;;;;;;5019185;28;20026;-63
2023/12/21 00:34:16;;;;;;;0.65;0.45;;;7.60;99.90;;;;;;5016709;28;20036;-63
2023/12/21 00:36:42;;;;;;;1.75;0.50;;;7.60;99.90;;;;;;5015591;28;20022;-63
2023/12/21 00:39:08;;;;;;;3.95;0.60;;;7.60;99.90;;;;;;5018419;28;20075;-63
2023/12/21 00:41:33;;;;;;;3.15;0.32;;;7.60;99.90;;;;;;5019205;28;20105;-63
2023/12/21 00:43:59;;;;;;;0.30;0.30;;;7.70;99.90;;;;;;5018902;28;20109;-63
2023/12/21 00:46:24;;;;;;;0.32;0.32;;;7.70;99.90;;;;;;5018773;28;20026;-63
2023/12/21 00:48:50;;;;;;;0.60;0.40;;;7.70;99.90;;;;;;5018540;28;20026;-63
2023/12/21 00:51:15;;;;;;;1.02;0.70;;;7.80;99.90;;;;;;5018680;28;20022;-63
2023/12/21 00:53:41;;;;;;;2.58;0.40;;;7.80;99.90;;;;;;5019277;28;20097;-63
2023/12/21 00:56:08;;;;;;;0.55;0.30;;;7.80;99.90;;;;;;5016641;28;20030;-63
2023/12/21 00:58:34;;;;;;;1.75;0.38;;;7.90;99.90;;;;;;5015995;28;20113;-63
2023/12/21 01:00:59;;;;;;;1.27;0.28;;;7.90;99.90;;;;;;5018353;28;20054;-63
2023/12/21 01:03:25;;;;;;;0.40;0.40;;;7.90;99.90;;;;;;5018211;28;20034;-63
2023/12/21 01:05:50;;;;;;;2.22;0.57;;;7.90;99.90;;;;;;5018192;28;20025;-63
2023/12/21 01:08:16;;;;;;;0.93;0.30;;;7.90;99.90;;;;;;5018265;28;20030;-63
2023/12/21 01:10:42;;;;;;;0.52;0.35;;;7.90;99.90;;;;;;5018344;28;20099;-63
2023/12/21 01:13:07;;;;;;;1.95;0.47;;;8.00;99.90;;;;;;5018903;28;20021;-63
2023/12/21 01:15:33;;;;;;;0.40;0.30;;;8.00;99.90;;;;;;5018884;28;20029;-63
2023/12/21 01:17:58;;;;;;;0.38;0.38;;;8.00;99.90;;;;;;5018894;28;20026;-63
2023/12/21 01:20:24;;;;;;;2.03;0.30;;;8.00;99.90;;;;;;5018955;28;20022;-63
2023/12/21 01:22:49;;;;;;;2.03;0.30;;;7.90;99.90;;;;;;5018345;28;20103;-63
2023/12/21 01:25:15;;;;;;;1.20;0.40;;;7.90;99.90;;;;;;5017856;28;20030;-63
2023/12/21 01:27:41;;;;;;;1.08;0.40;;;7.80;99.90;;;;;;5018024;28;20022;-63
2023/12/21 01:30:08;;;;;;;0.85;0.20;;;7.80;99.90;;;;;;5017810;28;20026;-63
2023/12/21 01:32:33;;;;;;;0.30;0.20;;;7.80;99.90;;;;;;5018548;28;20065;-63
2023/12/21 01:34:59;;;;;;;0.43;0.30;;;7.90;99.90;;;;;;5018474;28;20034;-63
2023/12/21 01:37:24;;;;;;;0.63;0.17;;;7.90;99.90;;;;;;5017616;28;20018;-63
2023/12/21 01:39:50;;;;;;;3.20;0.68;;;7.90;99.90;;;;;;5017688;28;20113;-63
2023/12/21 01:42:15;;;;;;;0.30;0.22;;;7.90;99.90;;;;;;5018204;28;20044;-63
2023/12/21 01:44:41;;;;;;;0.80;0.30;;;7.90;99.90;;;;;;5018283;28;20028;-63
2023/12/21 01:47:07;;;;;;;0.28;0.20;;;7.90;99.90;;;;;;5018445;28;20049;-63
2023/12/21 01:49:32;;;;;;;0.70;0.25;;;7.90;99.90;;;;;;5017459;28;20030;-63
2023/12/21 01:51:59;;;;;;;0.30;0.20;;;7.90;99.90;;;;;;5017977;28;20148;-63
2023/12/21 01:54:24;;;;;;;1.85;0.40;;;7.90;99.90;;;;;;5018239;28;20026;-63
2023/12/21 01:56:50;;;;;;;0.63;0.30;;;7.90;99.90;;;;;;5017227;28;20028;-63
2023/12/21 01:59:16;;;;;;;0.15;0.15;;;7.90;99.90;;;;;;5018435;28;20036;-64
2023/12/21 02:01:42;;;;;;;1.25;0.25;;;7.90;99.90;;;;;;5017065;28;20022;-63
2023/12/21 02:04:08;;;;;;;0.20;0.20;;;7.80;99.90;;;;;;5018410;28;20068;-63
2023/12/21 02:06:34;;;;;;;0.00;0.00;;;7.90;99.90;;;;;;5018043;28;20048;-63
2023/12/21 02:08:59;;;;;;;1.00;0.30;;;7.90;99.90;;;;;;5017864;28;20026;-63
2023/12/21 02:11:25;;;;;;;0.20;0.20;;;7.90;99.90;;;;;;5017089;28;20030;-63
2023/12/21 02:13:50;;;;;;;0.10;0.10;;;7.80;99.90;;;;;;5016948;28;20025;-63
2023/12/21 02:17:04;;;;;;;0.43;0.10;;;7.90;99.90;;;;;;5017170;28;20037;-63
2023/12/21 02:19:30;;;;;;;0.00;0.00;;;7.90;99.90;;;;;;5016387;28;20091;-63
2023/12/21 02:21:58;;;;;;;0.30;0.22;;;7.80;99.90;;;;;;5017727;28;20086;-63
2023/12/21 02:24:24;;;;;;;0.10;0.10;;;7.80;99.90;;;;;;5017937;28;20018;-63
2023/12/21 02:26:50;;;;;;;0.82;0.20;;;7.80;99.90;;;;;;5017725;28;20025;-63
2023/12/21 02:29:15;;;;;;;0.73;0.30;;;7.90;99.90;;;;;;5017459;28;20075;-63
2023/12/21 02:31:41;;;;;;;2.80;0.40;;;7.90;99.90;;;;;;5017544;28;20026;-63
2023/12/21 02:34:06;;;;;;;0.15;0.10;;;7.90;99.90;;;;;;5017466;28;20026;-63
2023/12/21 02:36:33;;;;;;;1.17;0.45;;;7.90;99.90;;;;;;5017510;28;20045;-63
2023/12/21 02:38:58;;;;;;;0.20;0.20;;;7.90;99.90;;;;;;5016785;28;20046;-63
2023/12/21 02:41:24;;;;;;;1.65;0.68;;;8.00;99.90;;;;;;5016693;28;20088;-63
2023/12/21 02:43:49;;;;;;;0.32;0.10;;;8.00;99.90;;;;;;5016496;28;20057;-63
2023/12/21 02:46:15;;;;;;;0.40;0.40;;;8.00;99.90;;;;;;5016573;28;20124;-63
2023/12/21 02:48:40;;;;;;;0.10;0.10;;;8.00;99.90;;;;;;5016882;28;20041;-63
2023/12/21 02:51:06;;;;;;;0.20;0.13;;;8.00;99.90;;;;;;5017840;28;20030;-63
2023/12/21 02:53:31;;;;;;;0.17;0.15;;;8.10;99.90;;;;;;5017332;28;20038;-63
2023/12/21 02:55:57;;;;;;;0.25;0.10;;;8.10;99.90;;;;;;5017032;28;20052;-63
2023/12/21 02:58:23;;;;;;;0.70;0.00;;;8.10;99.90;;;;;;5016392;28;20026;-63
2023/12/21 03:00:49;;;;;;;3.22;0.10;;;8.10;99.90;;;;;;5016357;28;20060;-63
2023/12/21 03:03:15;;;;;;;0.13;0.10;;;8.20;99.90;;;;;;5016610;28;20079;-63
2023/12/21 03:05:40;;;;;;;0.00;0.00;;;8.20;99.90;;;;;;5016616;28;20037;-63
2023/12/21 03:08:06;;;;;;;0.30;0.10;;;8.20;99.90;;;;;;5017277;28;20029;-63
2023/12/21 03:10:32;;;;;;;0.10;0.10;;;8.20;99.90;;;;;;5017263;28;20022;-63
2023/12/21 03:12:58;;;;;;;0.10;0.10;;;8.20;99.90;;;;;;5017311;28;20052;-63
2023/12/21 03:15:23;;;;;;;0.30;0.00;;;8.20;99.90;;;;;;5016891;28;20026;-63
2023/12/21 03:17:49;;;;;;;0.32;0.10;;;8.20;99.90;;;;;;5016747;28;20033;-63
2023/12/21 03:20:15;;;;;;;0.13;0.13;;;8.20;99.90;;;;;;5016571;28;20021;-62
2023/12/21 03:22:40;;;;;;;0.00;0.00;;;8.20;99.90;;;;;;5016621;28;20052;-63
2023/12/21 03:25:06;;;;;;;0.22;0.10;;;8.20;99.90;;;;;;5016250;28;20117;-63
2023/12/21 03:27:32;;;;;;;0.25;0.20;;;8.20;99.90;;;;;;5016294;28;20097;-63
2023/12/21 03:29:57;;;;;;;1.13;0.10;;;8.20;99.90;;;;;;5017015;28;20053;-63
2023/12/21 03:32:23;;;;;;;0.03;0.03;;;8.30;99.90;;;;;;5015989;28;20022;-63
2023/12/21 03:34:49;;;;;;;0.30;0.10;;;8.30;99.90;;;;;;5016853;28;20035;-63
2023/12/21 03:37:15;;;;;;;0.20;0.10;;;8.20;99.90;;;;;;5016036;28;20018;-63
2023/12/21 03:39:40;;;;;;;0.00;0.00;;;8.20;99.90;;;;;;5016015;28;20018;-63
2023/12/21 03:42:06;;;;;;;1.55;0.10;;;8.20;99.90;;;;;;5016221;28;20022;-63
2023/12/21 03:44:31;;;;;;;0.08;0.00;;;8.30;99.90;;;;;;5016273;28;20022;-63
2023/12/21 03:46:57;;;;;;;0.10;0.10;;;8.30;99.90;;;;;;5016724;28;20032;-63
2023/12/21 03:49:25;;;;;;;0.10;0.10;;;8.30;99.90;;;;;;5016030;28;20022;-63
2023/12/21 03:51:51;;;;;;;0.00;0.00;;;8.30;99.90;;;;;;5016780;28;20037;-63
2023/12/21 03:54:16;;;;;;;1.08;0.05;;;8.30;99.90;;;;;;5016773;28;20113;-63
2023/12/21 03:56:42;;;;;;;0.10;0.10;;;8.30;99.90;;;;;;5015910;28;20122;-63
2023/12/21 03:59:07;;;;;;;0.00;0.00;;;8.40;99.90;;;;;;5015767;28;20032;-63
2023/12/21 04:01:33;;;;;;;0.13;0.00;;;8.40;99.90;;;;;;5020358;28;20032;-63
2023/12/21 04:03:58;;;;;;;0.05;0.00;;;8.40;99.90;;;;;;5019552;28;20045;-63
2023/12/21 04:06:24;;;;;;;0.00;0.00;;;8.30;99.90;;;;;;5019710;28;20018;-63
2023/12/21 04:08:53;;;;;;;0.10;0.10;;;8.30;99.90;;;;;;5019713;28;20045;-63
2023/12/21 04:11:18;;;;;;;0.22;0.10;;;8.30;99.90;;;;;;5019273;28;20030;-63
2023/12/21 04:13:47;;;;;;;2.00;0.00;;;8.30;99.90;;;;;;5020284;28;20068;-63
2023/12/21 04:16:12;;;;;;;0.00;0.00;;;8.30;99.90;;;;;;5019491;28;20022;-62
2023/12/21 04:18:38;;;;;;;1.17;0.03;;;8.30;99.90;;;;;;5019485;28;20113;-62
2023/12/21 04:21:06;;;;;;;0.10;0.00;;;8.30;99.90;;;;;;5020271;28;20026;-63
2023/12/21 04:23:32;;;;;;;0.28;0.10;;;8.30;99.90;;;;;;5019480;28;20018;-62
2023/12/21 04:25:57;;;;;;;0.15;0.10;;;8.30;99.90;;;;;;5019882;28;20034;-62
2023/12/21 04:28:23;;;;;;;0.05;0.05;;;8.40;99.90;;;;;;5019247;28;20030;-62
2023/12/21 04:30:48;;;;;;;0.10;0.10;;;8.30;99.90;;;;;;5019516;28;20026;-62
2023/12/21 04:33:14;;;;;;;1.10;0.17;;;8.40;99.90;;;;;;5019887;28;20022;-63
2023/12/21 04:35:42;;;;;;;0.40;0.00;;;8.40;99.90;;;;;;5018924;28;20028;-62
2023/12/21 04:38:08;;;;;;;0.10;0.08;;;8.30;99.90;;;;;;5019503;28;20022;-63
2023/12/21 04:40:33;;;;;;;0.00;0.00;;;8.30;99.90;;;;;;5019287;28;20022;-62
2023/12/21 04:42:59;;;;;;;0.80;0.13;;;8.30;99.90;;;;;;5018814;28;20020;-63
2023/12/21 04:45:25;;;;;;;0.08;0.08;;;8.30;99.90;;;;;;5019747;28;20079;-62
2023/12/21 04:47:50;;;;;;;0.00;0.00;;;8.40;99.90;;;;;;5018641;28;20029;-62
2023/12/21 04:50:16;;;;;;;0.10;0.10;;;8.40;99.90;;;;;;5018447;28;20083;-62
2023/12/21 04:52:42;;;;;;;0.10;0.00;;;8.40;99.90;;;;;;5018765;28;20033;-62
2023/12/21 04:55:08;;;;;;;0.13;0.03;;;8.30;99.90;;;;;;5018775;28;20036;-62
2023/12/21 04:58:10;;;;;;;0.00;0.00;;;8.40;99.90;;;;;;5017965;28;20030;-62
2023/12/21 05:00:35;;;;;;;0.10;0.00;;;8.40;99.90;;;;;;5018396;28;20022;-63
2023/12/21 05:03:01;;;;;;;0.15;0.10;;;8.50;99.90;;;;;;5018598;28;20034;-62
2023/12/21 05:05:26;;;;;;;0.00;0.00;;;8.50;99.90;;;;;;5018651;28;20022;-62
2023/12/21 05:07:53;;;;;;;0.00;0.00;;;8.50;99.90;;;;;;5018888;28;20030;-62
2023/12/21 05:10:18;;;;;;;0.25;0.00;;;8.50;99.90;;;;;;5017782;28;20049;-62
2023/12/21 05:12:44;;;;;;;0.00;0.00;;;8.50;99.90;;;;;;5018468;28;20026;-63
2023/12/21 05:15:10;;;;;;;0.00;0.00;;;8.50;99.90;;;;;;5018546;28;20060;-63
2023/12/21 05:17:35;;;;;;;0.00;0.00;;;8.50;99.90;;;;;;5018398;28;20028;-62
2023/12/21 05:20:01;;;;;;;0.00;0.00;;;8.50;99.90;;;;;;5018354;28;20022;-63
2023/12/21 05:22:26;;;;;;;0.30;0.05;;;8.50;99.90;;;;;;5017894;28;20060;-62
2023/12/21 05:24:52;;;;;;;0.10;0.10;;;8.50;99.90;;;;;;5018427;28;20025;-63
2023/12/21 05:27:17;;;;;;;0.28;0.28;;;8.60;99.90;;;;;;5018929;28;20022;-62
2023/12/21 05:29:43;;;;;;;0.95;0.10;;;8.60;99.90;;;;;;5018080;28;20025;-62
2023/12/21 05:32:09;;;;;;;0.32;0.08;;;8.70;99.90;;;;;;5017817;28;20076;-63
2023/12/21 05:34:34;;;;;;;0.20;0.10;;;8.70;99.90;;;;;;5018027;28;20026;-62
2023/12/21 05:37:00;;;;;;;0.00;0.00;;;8.70;99.90;;;;;;5018097;28;20045;-63
2023/12/21 05:39:27;;;;;;;0.10;0.10;;;8.70;99.90;;;;;;5017640;28;20029;-63
2023/12/21 05:41:53;;;;;;;0.10;0.05;;;8.70;99.90;;;;;;5017466;28;20029;-62
2023/12/21 05:44:18;;;;;;;0.30;0.08;;;8.70;99.90;;;;;;5017605;28;20018;-62
2023/12/21 05:46:44;;;;;;;0.15;0.10;;;8.70;99.90;;;;;;5017561;28;20018;-63
2023/12/21 05:49:10;;;;;;;0.10;0.08;;;8.70;99.90;;;;;;5018266;28;20038;-63
2023/12/21 05:51:35;;;;;;;0.10;0.10;;;8.70;99.90;;;;;;5017461;28;20057;-62
2023/12/21 05:54:01;;;;;;;0.20;0.00;;;8.70;99.90;;;;;;5017299;28;20018;-62
2023/12/21 05:56:27;;;;;;;0.20;0.10;;;8.70;99.90;;;;;;5017681;28;20022;-62
2023/12/21 05:58:53;;;;;;;0.20;0.10;;;8.70;99.90;;;;;;5017236;28;20025;-63
2023/12/21 06:01:18;;;;;;;0.45;0.08;;;8.70;99.90;;;;;;5017987;28;20018;-62
2023/12/21 06:03:44;;;;;;;0.80;0.00;;;8.70;99.90;;;;;;5017246;28;20022;-62
2023/12/21 06:06:09;;;;;;;0.08;0.00;;;8.80;99.90;;;;;;5017959;28;20029;-62
2023/12/21 06:08:35;;;;;;;0.00;0.00;;;8.70;99.90;;;;;;5017940;28;20053;-62
2023/12/21 06:11:00;;;;;;;0.10;0.10;;;8.70;99.90;;;;;;5017456;28;20076;-62
2023/12/21 06:13:28;;;;;;;0.00;0.00;;;8.80;99.90;;;;;;5016948;28;20080;-62
2023/12/21 06:16:47;;;;;;;0.13;0.10;;;8.90;99.90;;;;;;5017094;28;20022;-63
2023/12/21 06:19:15;;;;;;;0.17;0.10;;;8.90;99.90;;;;;;5017670;28;20033;-63
2023/12/21 06:21:40;;;;;;;0.20;0.10;;;8.90;99.90;;;;;;5016571;28;20018;-63
2023/12/21 06:24:06;;;;;;;0.10;0.10;;;8.90;99.90;;;;;;5016755;28;20029;-62
2023/12/21 06:26:32;;;;;;;0.00;0.00;;;9.00;99.90;;;;;;5017069;28;20022;-62
2023/12/21 06:28:58;;;;;;;1.45;0.10;;;9.00;99.90;;;;;;5016764;28;20117;-63
2023/12/21 06:31:24;;;;;;;0.10;0.00;;;8.90;99.90;;;;;;5017122;28;20045;-62
2023/12/21 06:33:52;;;;;;;0.28;0.08;;;8.90;99.90;;;;;;5016634;28;20029;-63
2023/12/21 06:36:17;;;;;;;0.20;0.20;;;8.90;99.90;;;;;;5016552;28;20021;-62
2023/12/21 06:38:43;;;;;;;0.15;0.10;;;8.90;99.90;;;;;;5016819;28;20014;-62
2023/12/21 06:41:11;;;;;;;0.30;0.20;;;8.80;99.90;;;;;;5017684;28;20072;-62
2023/12/21 06:43:36;;;;;;;0.00;0.00;;;8.80;99.90;;;;;;5016854;28;20037;-63
2023/12/21 06:46:02;;;;;;;0.15;0.10;;;8.80;99.90;;;;;;5017701;28;20025;-63
2023/12/21 06:48:28;;;;;;;0.30;0.10;;;8.70;99.90;;;;;;5016836;28;20080;-63
2023/12/21 06:50:53;;;;;;;0.10;0.10;;;8.80;99.90;;;;;;5016550;28;20030;-62
2023/12/21 06:53:19;;;;;;;0.28;0.05;;;8.80;99.90;;;;;;5016569;28;20030;-62
2023/12/21 06:55:44;;;;;;;0.25;0.10;;;8.70;99.90;;;;;;5017180;28;20025;-62
2023/12/21 06:58:10;;;;;;;0.50;0.30;;;8.70;99.90;;;;;;5016553;28;20025;-63
2023/12/21 07:00:36;;;;;;;1.38;0.10;;;8.70;99.90;;;;;;5016773;28;20092;-62
2023/12/21 07:03:02;;;;;;;0.20;0.08;;;8.60;99.90;;;;;;5016335;28;20064;-62
2023/12/21 07:05:27;;;;;;;0.10;0.03;;;8.60;99.90;;;;;;5016657;28;20026;-63
2023/12/21 07:07:54;;;;;;;0.52;0.10;;;8.60;99.90;;;;;;5016658;28;20076;-62
2023/12/21 07:10:20;;;;;;;0.38;0.38;;;8.60;99.90;;;;;;5017007;28;20064;-63
2023/12/21 07:12:46;;;;;;;0.17;0.17;;;8.60;99.90;;;;;;5016254;28;20063;-63
2023/12/21 07:15:12;;;;;;;0.10;0.10;;;8.60;99.90;;;;;;5016445;28;20058;-63
2023/12/21 07:17:38;;;;;;;0.20;0.17;;;8.60;99.90;;;;;;5016340;28;20021;-63
2023/12/21 07:20:04;;;;;;;0.20;0.17;;;8.60;99.90;;;;;;5017065;28;20108;-63
2023/12/21 07:22:30;;;;;;;0.38;0.25;;;8.60;99.90;;;;;;5016871;28;20025;-63
2023/12/21 07:24:55;;;;;;;0.10;0.10;;;8.60;99.90;;;;;;5016396;28;20026;-63
2023/12/21 07:27:21;;;;;;;0.60;0.20;;;8.60;99.90;;;;;;5016551;28;20030;-63
2023/12/21 07:29:49;;;;;;;0.50;0.25;;;8.60;99.90;;;;;;5016865;28;20080;-62
2023/12/21 07:32:15;;;;;;;0.10;0.10;;;8.60;99.90;;;;;;5016317;28;20030;-62
2023/12/21 07:34:40;;;;;;;0.22;0.10;;;8.70;99.90;;;;;;5018576;28;20036;-62
2023/12/21 07:37:08;;;;;;;0.20;0.15;;;8.60;99.90;;;;;;5020578;28;20052;-63
2023/12/21 07:39:33;;;;;;;0.10;0.10;;;8.70;99.90;;;;;;5020143;28;20026;-63
2023/12/21 07:41:59;;;;;;;2.08;0.10;;;8.70;99.90;;;;;;5019706;28;20045;-62
2023/12/21 07:44:24;;;;;;;0.17;0.13;;;8.70;99.90;;;;;;5020014;28;20030;-62
2023/12/21 07:46:50;;;;;;;1.15;0.20;;;8.60;99.90;;;;;;5020611;28;20120;-62
2023/12/21 07:49:16;;;;;;;0.80;0.55;;;8.60;99.90;;;;;;5019904;28;20030;-63
2023/12/21 07:51:41;;;;;;;0.28;0.20;;;8.60;99.90;;;;;;5020598;28;20033;-62
2023/12/21 07:54:07;;;;;;;0.43;0.20;;;8.60;99.90;;;;;;5019974;28;20037;-62
2023/12/21 07:56:32;;;;;;;0.38;0.10;;;8.60;99.90;;;;;;5019709;28;20112;-62
2023/12/21 07:59:04;;;;;;;2.50;0.55;;;8.60;99.90;;;;;;5019508;28;20030;-62
2023/12/21 08:01:30;;;;;;;0.38;0.10;;;8.60;99.90;;;;;;5020360;28;20053;-62
2023/12/21 08:03:56;;;;;;;0.20;0.20;;;8.60;99.90;;;;;;5019886;28;20065;-62
2023/12/21 08:06:22;;;;;;;0.13;0.13;;;8.60;99.90;;;;;;5020114;28;20045;-63
2023/12/21 08:08:50;;;;;;;1.27;0.20;;;8.50;99.90;;;;;;5019634;28;20121;-62
2023/12/21 08:11:16;;;;;;;0.25;0.10;;;8.50;99.90;;;;;;5019306;28;20069;-62
2023/12/21 08:13:42;;;;;;;0.52;0.10;;;8.50;99.90;;;;;;5019373;28;20026;-62
2023/12/21 08:16:07;;;;;;;0.50;0.10;;;8.50;99.90;;;;;;5020129;28;20041;-63
2023/12/21 08:18:33;;;;;;;2.35;0.25;;;8.60;99.90;;;;;;5019195;28;20080;-63
2023/12/21 08:20:58;;;;;;;0.25;0.10;;;8.60;99.90;;;;;;5019352;28;20112;-62
2023/12/21 08:23:24;;;;;;;0.10;0.10;;;8.60;99.90;;;;;;5019217;28;20029;-63
2023/12/21 08:29:11;;;;;;;1.35;0.17;;;8.70;99.90;;;;;;5020162;28;20025;-62
2023/12/21 08:31:37;;;;;;;0.10;0.05;;;8.60;99.90;;;;;;5018861;28;20030;-62
2023/12/21 08:34:02;;;;;;;0.20;0.15;;;8.70;99.90;;;;;;5018867;28;20026;-62
2023/12/21 08:36:28;;;;;;;0.32;0.32;;;8.70;99.90;;;;;;5019082;28;20036;-62
2023/12/21 08:38:54;;;;;;;0.30;0.20;;;8.70;99.90;;;;;;5019103;28;20017;-62
2023/12/21 08:41:21;;;;;;;1.33;0.32;;;8.70;99.90;;;;;;5018837;28;20032;-63
2023/12/21 08:43:46;;;;;;;2.22;0.25;;;8.70;99.90;;;;;;5019148;28;20026;-63
2023/12/21 08:46:12;;;;;;;1.35;0.30;;;8.70;99.90;;;;;;5017817;28;20135;-63
2023/12/21 08:48:37;;;;;;;0.20;0.20;;;8.70;99.90;;;;;;5019068;28;20069;-62
2023/12/21 08:51:03;;;;;;;0.45;0.22;;;8.80;99.90;;;;;;5018983;28;20032;-63
2023/12/21 08:53:28;;;;;;;0.10;0.10;;;8.80;99.90;;;;;;5018756;28;20041;-62
2023/12/21 08:55:54;;;;;;;0.70;0.35;;;8.70;99.90;;;;;;5018966;28;20030;-63
2023/12/21 08:58:19;;;;;;;0.73;0.60;;;8.70;99.90;;;;;;5018184;28;20022;-63
2023/12/21 09:00:46;;;;;;;0.75;0.47;;;8.80;99.90;;;;;;5018409;28;20042;-62
2023/12/21 09:03:11;;;;;;;0.55;0.38;;;8.80;99.90;;;;;;5018278;28;20144;-62
2023/12/21 09:05:37;;;;;;;0.20;0.20;;;8.80;99.90;;;;;;5018333;28;20065;-62
2023/12/21 09:08:03;;;;;;;1.15;0.68;;;8.80;99.90;;;;;;5018358;28;20022;-62
2023/12/21 09:10:29;;;;;;;0.55;0.10;;;8.90;99.90;;;;;;5019346;28;20117;-63
2023/12/21 09:12:54;;;;;;;0.03;0.00;;;8.90;99.90;;;;;;5018127;28;20080;-63
2023/12/21 09:15:20;;;;;;;0.10;0.10;;;8.90;99.90;;;;;;5018184;28;20029;-63
2023/12/21 09:17:46;;;;;;;0.25;0.20;;;8.90;99.90;;;;;;5018365;28;20030;-62
2023/12/21 09:20:13;;;;;;;0.45;0.45;;;8.90;99.90;;;;;;5019074;28;20021;-62
2023/12/21 09:22:39;;;;;;;0.50;0.47;;;8.90;99.90;;;;;;5018003;28;20029;-62
2023/12/21 09:25:05;;;;;;;1.05;0.70;;;9.00;99.90;;;;;;5018271;28;20021;-62
2023/12/21 09:27:32;;;;;;;0.20;0.17;;;9.00;99.90;;;;;;5018155;28;20029;-62
2023/12/21 09:29:58;;;;;;;0.10;0.10;;;9.00;99.90;;;;;;5017851;28;20034;-63
2023/12/21 09:32:23;;;;;;;1.17;0.25;;;9.00;99.90;;;;;;5018368;28;20116;-62
2023/12/21 09:34:49;;;;;;;0.55;0.20;;;9.10;99.90;;;;;;5017778;28;20021;-63
2023/12/21 09:37:15;;;;;;;0.13;0.10;;;9.10;99.90;;;;;;5017654;28;20029;-62
2023/12/21 09:39:40;;;;;;;0.52;0.30;;;9.10;99.90;;;;;;5017612;28;20033;-62
2023/12/21 09:42:06;;;;;;;0.50;0.32;;;9.10;99.90;;;;;;5017634;28;20037;-62
2023/12/21 09:44:34;;;;;;;1.10;0.35;;;9.10;99.90;;;;;;5018412;28;20029;-61
2023/12/21 09:47:04;;;;;;;0.43;0.10;;;9.20;99.90;;;;;;5018368;28;20030;-62
2023/12/21 09:49:36;;;;;;;0.47;0.10;;;9.10;99.90;;;;;;5017426;28;20108;-62
2023/12/21 09:52:07;;;;;;;0.30;0.30;;;9.20;99.90;;;;;;5018091;28;20034;-62
2023/12/21 09:54:39;;;;;;;1.88;0.82;;;9.20;99.90;;;;;;5018118;28;20109;-62
2023/12/21 09:57:06;;;;;;;0.25;0.15;;;9.20;99.90;;;;;;5017854;28;20026;-62
2023/12/21 09:59:35;;;;;;;0.35;0.10;;;9.10;99.90;;;;;;5018058;28;20021;-62
2023/12/21 10:02:01;;;;;;;0.45;0.10;;;9.10;99.90;;;;;;5017124;28;20032;-62
2023/12/21 10:04:26;;;;;;;0.28;0.10;;;9.10;99.90;;;;;;5018118;28;20026;-61
2023/12/21 10:06:52;;;;;;;0.10;0.05;;;9.10;99.90;;;;;;5018608;28;20029;-62
2023/12/21 10:09:18;;;;;;;0.50;0.20;;;9.10;99.90;;;;;;5017135;28;20021;-62
2023/12/21 10:11:44;;;;;;;0.90;0.05;;;9.10;99.90;;;;;;5018080;28;20026;-62
2023/12/21 10:14:21;;;;;;;0.55;0.20;;;9.20;99.90;;;;;;5017917;28;20025;-62
2023/12/21 10:16:47;;;;;;;1.02;0.10;;;9.20;99.90;;;;;;5017143;28;20034;-67
2023/12/21 10:19:12;;;;;;;1.00;0.25;;;9.20;99.90;;;;;;5017896;28;20062;-67
2023/12/21 10:21:40;;;;;;;0.22;0.20;;;9.20;99.90;;;;;;5017745;28;20029;-68
2023/12/21 10:24:06;;;;;;;0.20;0.15;;;9.30;99.90;;;;;;5018036;28;20073;-68
2023/12/21 10:26:32;;;;;;;1.73;0.28;;;9.30;99.90;;;;;;5017180;28;20030;-67
2023/12/21 10:28:58;;;;;;;0.17;0.17;;;9.30;99.90;;;;;;5016888;28;20032;-68
2023/12/21 10:31:25;;;;;;;0.28;0.10;;;9.30;99.90;;;;;;5017746;28;20025;-68
2023/12/21 10:33:51;;;;;;;0.08;0.00;;;9.20;99.90;;;;;;5017632;28;20026;-68
2023/12/21 10:36:17;;;;;;;0.08;0.08;;;9.20;99.90;;;;;;5017093;28;20033;-68
2023/12/21 10:38:44;;;;;;;0.20;0.20;;;9.20;99.90;;;;;;5016730;28;20045;-68
2023/12/21 10:41:10;;;;;;;0.30;0.10;;;9.30;99.90;;;;;;5017599;28;20044;-67
2023/12/21 10:43:36;;;;;;;0.22;0.20;;;9.30;99.90;;;;;;5016560;28;20022;-68
2023/12/21 10:46:03;;;;;;;0.40;0.20;;;9.40;99.90;;;;;;5017521;28;20026;-68
2023/12/21 10:48:33;;;;;;;0.10;0.10;;;9.40;99.90;;;;;;5017288;28;20038;-67
2023/12/21 10:51:00;;;;;;;0.20;0.10;;;9.40;99.90;;;;;;5017188;28;20030;-69
2023/12/21 10:53:29;;;;;;;1.58;0.30;;;9.40;99.90;;;;;;5016671;28;20025;-69
2023/12/21 10:56:00;;;;;;;0.32;0.13;;;9.40;99.90;;;;;;5016340;28;20036;-68
2023/12/21 10:58:27;;;;;;;0.22;0.08;;;9.40;99.90;;;;;;5017493;28;20018;-69
2023/12/21 11:00:55;;;;;;;0.65;0.20;;;9.40;99.90;;;;;;5017408;28;20149;-67
2023/12/21 11:03:21;;;;;;;0.75;0.38;;;9.40;99.90;;;;;;5017484;28;20026;-68
2023/12/21 11:05:47;;;;;;;0.75;0.30;;;9.40;99.90;;;;;;5017191;28;20042;-68
2023/12/21 11:08:13;;;;;;;0.43;0.35;;;9.40;99.90;;;;;;5015776;28;20034;-68
2023/12/21 11:10:39;;;;;;;1.83;0.40;;;9.40;99.90;;;;;;5016292;28;20033;-68
2023/12/21 11:13:04;;;;;;;3.85;0.30;;;9.40;99.90;;;;;;5017155;28;20076;-68
2023/12/21 11:15:31;;;;;;;0.35;0.17;;;9.40;99.90;;;;;;5015673;28;20037;-68
2023/12/21 11:18:20;;;;;;;0.10;0.10;;;9.40;99.90;;;;;;5016847;28;20050;-68
2023/12/21 11:20:54;;;;;;;0.38;0.10;;;9.40;99.90;;;;;;5033948;28;20030;-69
2023/12/21 11:23:21;;;;;;;2.22;0.93;;;9.40;99.90;;;;;;5035789;28;20026;-68
2023/12/21 11:25:56;;;;;;;2.17;0.50;;;9.40;99.90;;;;;;5036753;28;20017;-68
2023/12/21 11:28:27;;;;;;;1.05;0.30;;;9.30;99.90;;;;;;5035868;28;20025;-69
2023/12/21 11:30:53;;;;;;;2.45;0.50;;;9.40;99.90;;;;;;5036791;28;20053;-68
2023/12/21 11:33:30;;;;;;;0.30;0.13;;;9.40;99.90;;;;;;5035737;28;20037;-68
2023/12/21 11:36:02;;;;;;;0.57;0.35;;;9.30;99.90;;;;;;5036595;28;20075;-68
2023/12/21 11:38:57;;;;;;;0.40;0.40;;;9.30;99.90;;;;;;5036525;28;20131;-68
2023/12/21 11:41:24;;;;;;;1.30;0.70;;;9.40;99.90;;;;;;4960110;28;20154;-68
2023/12/21 11:44:02;;;;;;;1.38;0.60;;;9.40;99.90;;;;;;4976955;28;20125;-68
2023/12/21 11:46:30;;;;;;;1.02;0.45;;;9.40;99.90;;;;;;4976388;28;20093;-68
2023/12/21 11:48:56;;;;;;;2.35;0.98;;;9.40;99.90;;;;;;4960219;28;20073;-67
2023/12/21 11:51:22;;;;;;;1.45;0.52;;;9.40;99.90;;;;;;4976270;28;20113;-68
2023/12/21 11:53:47;;;;;;;2.00;0.40;;;9.50;99.90;;;;;;4976139;28;20035;-68
2023/12/21 11:56:14;;;;;;;0.40;0.20;;;9.50;99.90;;;;;;4975934;28;20027;-68
2023/12/21 11:58:40;;;;;;;0.55;0.30;;;9.50;99.90;;;;;;4976331;28;20031;-68
2023/12/21 12:01:07;;;;;;;1.33;0.50;;;9.60;99.90;;;;;;4976258;28;20139;-68
2023/12/21 12:03:33;;;;;;;1.30;0.60;;;9.60;99.90;;;;;;4976213;28;20121;-68
2023/12/21 12:06:00;;;;;;;1.25;0.88;;;9.60;99.90;;;;;;4976099;28;20134;-68
2023/12/21 12:08:25;;;;;;;0.85;0.57;;;9.60;99.90;;;;;;4976187;28;20035;-68
2023/12/21 12:10:57;;;;;;;0.65;0.47;;;9.60;99.90;;;;;;4976547;28;20126;-68
2023/12/21 12:13:23;;;;;;;1.35;0.60;;;9.60;99.90;;;;;;4976196;28;20133;-68
2023/12/21 12:15:50;;;;;;;1.10;0.60;;;9.60;99.90;;;;;;4959872;28;20098;-68
2023/12/21 12:18:16;;;;;;;1.85;0.90;;;9.50;99.90;;;;;;5019811;28;20034;-68
2023/12/21 12:20:42;;;;;;;3.35;1.00;;;9.50;99.90;;;;;;5036116;28;20032;-68
2023/12/21 12:23:09;;;;;;;2.25;1.30;;;9.50;99.90;;;;;;5038748;28;20026;-68
2023/12/21 12:25:35;;;;;;;0.75;0.52;;;9.60;99.90;;;;;;5039189;28;20060;-68
2023/12/21 12:28:00;;;;;;;2.55;0.60;;;9.60;99.90;;;;;;5038922;28;20029;-69
2023/12/21 12:30:26;;;;;;;0.38;0.10;;;9.60;99.90;;;;;;5038743;28;20030;-68
2023/12/21 12:32:53;;;;;;;0.20;0.10;;;9.60;99.90;;;;;;5038579;28;20052;-68
2023/12/21 12:35:19;;;;;;;1.50;0.28;;;9.70;99.90;;;;;;5039838;28;20029;-68
2023/12/21 12:37:50;;;;;;;0.30;0.20;;;9.70;99.90;;;;;;5039720;28;20036;-68
2023/12/21 12:40:16;;;;;;;0.95;0.15;;;9.70;99.90;;;;;;5039651;28;20053;-67
2023/12/21 12:42:42;;;;;;;0.95;0.40;;;9.60;99.90;;;;;;5038500;28;20080;-68
2023/12/21 12:45:08;;;;;;;1.80;0.50;;;9.60;99.90;;;;;;5039684;28;20087;-67
2023/12/21 12:47:34;;;;;;;0.55;0.32;;;9.60;99.90;;;;;;5039363;28;20036;-67
2023/12/21 12:50:03;;;;;;;0.68;0.25;;;9.60;99.90;;;;;;5039332;28;20033;-68
2023/12/21 12:52:29;;;;;;;0.82;0.30;;;9.50;99.90;;;;;;5039218;28;20079;-67
2023/12/21 12:54:54;;;;;;;0.68;0.50;;;9.50;99.90;;;;;;5039343;28;20034;-67
2023/12/21 12:57:26;;;;;;;2.15;0.63;;;9.60;99.90;;;;;;5039097;28;20025;-68